Latest Weather Observations for Pound Creek

IDV60801

Issued at 11:02 pm EST Friday 17 August 2018 (issued every 10 minutes, with the page automatically refreshed every 10 minutes)

About weather observations | Map of weather stations | Latest weather observations for VIC | Other Formats
Station Details ID: 085099 Name: POUND CREEK Lat: -38.63 Lon: 145.81 Height: 3.0 m
Data from the previous 72 hours. | See also: Recent months at Pound Creek
Date/Time
EST
Temp
°C
App
Temp
°C
Dew
Point
°C
Rel
Hum
%
Delta-T
°C
Wind Press
QNH
hPa
Press
MSL
hPa
Rain since
9am
mm
Dir  Spd
km/h
Gust
km/h
Spd
kts
Gust
kts
17/11:00pm 12.2 5.4 3.2 54 4.0 NNW 28 50 15 27 1005.6 1005.6 0.0
17/10:38pm 11.9 5.2 3.4 56 3.8 N 28 46 15 25 1006.0 1006.0 0.0
17/10:30pm 12.1 5.0 3.3 55 3.9 N 30 46 16 25 1006.1 1006.1 0.0
17/10:29pm 11.9 5.2 3.4 56 3.8 N 28 46 15 25 1006.2 1006.2 0.0
17/10:00pm 11.6 5.3 3.6 58 3.6 N 26 39 14 21 1007.0 1007.0 0.0
17/09:30pm 11.4 5.1 3.7 59 3.4 N 26 46 14 25 1007.3 1007.3 0.0
17/09:00pm 11.4 5.8 3.7 59 3.4 NNW 22 35 12 19 1007.7 1007.7 0.0
17/08:30pm 11.2 6.0 3.5 59 3.4 NNW 20 32 11 17 1008.2 1008.2 0.0
17/08:00pm 11.1 6.1 3.6 60 3.3 NNW 19 32 10 17 1008.6 1008.6 0.0
17/07:30pm 11.2 6.0 3.7 60 3.3 N 20 33 11 18 1008.5 1008.5 0.0
17/07:00pm 11.0 6.7 3.3 59 3.4 N 15 24 8 13 1008.7 1008.7 0.0
17/06:30pm 11.6 6.9 3.4 57 3.6 NNW 17 26 9 14 1008.9 1008.9 0.0
17/06:00pm 11.7 7.5 3.7 58 3.6 NNW 15 26 8 14 1008.8 1008.8 0.0
17/05:30pm 12.3 8.1 4.0 57 3.7 NNW 15 22 8 12 1008.8 1008.8 0.0
17/05:00pm 13.0 8.9 4.4 56 3.9 NNW 15 28 8 15 1008.9 1008.9 0.0
17/04:30pm 13.5 9.0 4.1 53 4.3 NNW 17 32 9 17 1008.8 1008.8 0.0
17/04:00pm 14.1 9.7 4.9 54 4.3 NW 17 32 9 17 1009.0 1009.0 0.0
17/03:30pm 14.6 10.2 4.6 51 4.6 NW 17 32 9 17 1009.1 1009.1 0.0
17/03:00pm 14.4 9.4 4.7 52 4.5 NW 20 37 11 20 1009.4 1009.4 0.0
17/02:30pm 14.4 9.6 4.7 52 4.5 NW 19 30 10 16 1009.5 1009.5 0.0
17/02:00pm 14.2 8.7 4.2 51 4.6 NW 22 37 12 20 1009.6 1009.6 0.0
17/01:30pm 14.3 10.0 5.1 54 4.3 WNW 17 30 9 16 1009.9 1009.9 0.0
17/01:00pm 14.2 9.3 5.0 54 4.3 NW 20 35 11 19 1010.4 1010.4 0.0
17/12:30pm 14.0 9.7 5.4 56 4.0 WNW 17 32 9 17 1010.9 1010.9 0.0
17/12:00pm 13.3 8.7 5.5 59 3.7 WNW 19 33 10 18 1011.4 1011.4 0.0
17/11:30am 13.4 9.9 7.0 65 3.1 NW 15 28 8 15 1011.8 1011.8 0.0
17/11:00am 12.6 8.1 6.2 65 3.0 NW 19 30 10 16 1012.1 1012.1 0.0
17/10:30am 12.0 7.5 6.1 67 2.8 NW 19 30 10 16 1012.3 1012.3 0.0
17/10:00am 11.4 7.6 5.9 69 2.6 NW 15 28 8 15 1012.5 1012.5 0.0
17/09:30am 10.8 7.0 5.6 70 2.4 NNW 15 26 8 14 1012.8 1012.8 0.0
17/09:00am 10.0 6.9 5.4 73 2.1 NNW 11 19 6 10 1012.9 1012.9 2.4
17/08:30am 8.9 5.7 5.1 77 1.7 NNW 11 20 6 11 1013.0 1013.0 2.4
17/08:00am 7.4 4.1 4.4 81 1.3 NNW 11 17 6 9 1013.0 1013.0 2.4
17/07:30am 6.9 3.9 4.0 82 1.2 N 9 15 5 8 1012.6 1012.6 2.4
17/07:00am 7.1 3.7 4.2 82 1.3 NNW 11 17 6 9 1012.5 1012.5 2.4
17/06:30am 6.8 3.9 4.5 85 1.0 NNW 9 13 5 7 1012.3 1012.3 2.4
17/06:00am 6.5 3.9 4.3 86 0.9 NNW 7 11 4 6 1012.2 1012.2 2.4
17/05:30am 6.3 3.7 4.3 87 0.9 N 7 11 4 6 1012.2 1012.2 2.4
17/05:00am 6.6 3.6 4.3 85 1.0 NNW 9 13 5 7 1012.1 1012.1 2.4
17/04:30am 6.8 3.9 4.5 85 1.0 NNW 9 15 5 8 1012.0 1012.0 2.4
17/04:00am 7.1 4.2 4.8 85 1.0 NNW 9 13 5 7 1012.2 1012.2 2.4
17/03:30am 7.5 4.7 5.1 85 1.1 NNW 9 15 5 8 1012.3 1012.3 2.4
17/03:00am 7.3 4.5 5.0 85 1.0 NNW 9 15 5 8 1012.6 1012.6 2.4
17/02:30am 7.1 4.2 4.9 86 1.0 NNW 9 13 5 7 1012.9 1012.9 2.4
17/02:00am 6.9 3.7 4.9 87 0.9 NNW 11 15 6 8 1012.9 1012.9 2.4
17/01:30am 6.8 3.6 5.0 88 0.8 NNW 11 15 6 8 1012.9 1012.9 2.4
17/01:00am 6.6 3.3 4.8 88 0.8 NNW 11 15 6 8 1012.9 1012.9 2.4
17/12:30am 6.6 3.8 5.1 90 0.7 NNW 9 13 5 7 1013.1 1013.1 2.4
17/12:00am 5.8 3.4 4.4 91 0.6 N 6 7 3 4 1013.1 1013.1 2.4
 
Date/Time
EST
Temp
°C
App
Temp
°C
Dew
Point
°C
Rel
Hum
%
Delta-T
°C
Wind Press
QNH
hPa
Press
MSL
hPa
Rain since
9am
mm
Dir  Spd
km/h
Gust
km/h
Spd
kts
Gust
kts
16/11:30pm 6.3 3.4 4.8 90 0.7 N 9 11 5 6 1012.9 1012.9 2.4
16/11:00pm 6.7 3.9 5.2 90 0.7 NNW 9 13 5 7 1013.1 1013.1 2.4
16/10:30pm 6.8 4.4 5.3 90 0.7 NNW 7 11 4 6 1013.1 1013.1 2.4
16/10:00pm 7.0 4.3 5.6 91 0.6 NNW 9 13 5 7 1013.3 1013.3 2.4
16/09:30pm 7.4 5.2 6.0 91 0.6 NNW 7 9 4 5 1013.3 1013.3 2.4
16/09:00pm 7.7 5.5 6.3 91 0.6 NNW 7 11 4 6 1013.4 1013.4 2.4
16/08:30pm 8.2 6.3 6.7 90 0.7 NNW 6 9 3 5 1013.3 1013.3 2.4
16/08:00pm 8.7 6.7 7.0 89 0.8 NNW 7 13 4 7 1013.2 1013.2 2.4
16/07:30pm 8.9 6.9 7.0 88 0.9 WNW 7 11 4 6 1012.9 1012.9 2.2
16/07:00pm 9.2 7.2 7.2 87 0.9 WNW 7 13 4 7 1012.9 1012.9 1.6
16/06:30pm 9.2 5.2 6.8 85 1.1 W 17 28 9 15 1012.7 1012.7 1.6
16/06:00pm 9.8 7.1 7.4 85 1.1 WNW 11 22 6 12 1012.2 1012.2 1.0
16/05:30pm 9.8 7.7 8.1 89 0.8 WNW 9 17 5 9 1012.2 1012.2 1.0
16/05:00pm 9.7 6.0 7.8 88 0.9 W 17 24 9 13 1012.2 1012.2 1.0
16/04:30pm 10.1 4.6 7.5 84 1.2 WNW 26 35 14 19 1011.8 1011.8 0.6
16/04:00pm 11.3 6.8 6.8 74 2.1 W 20 32 11 17 1011.7 1011.7 0.4
16/03:30pm 12.7 8.2 8.6 76 2.0 W 22 39 12 21 1011.6 1011.6 0.4
16/03:16pm 10.8 4.6 8.0 83 1.4 WSW 30 48 16 26 1011.6 1011.6 0.4
16/03:00pm 12.2 6.3 7.7 74 2.2 W 28 37 15 20 1011.3 1011.3 0.4
16/02:30pm 10.9 5.9 8.1 83 1.4 W 24 32 13 17 1011.3 1011.3 0.4
16/02:02pm 11.7 5.7 7.0 73 2.2 W 28 46 15 25 1011.1 1011.1 0.0
16/02:00pm 12.0 6.4 7.3 73 2.3 W 26 35 14 19 1011.0 1011.0 0.0
16/01:30pm 12.2 5.9 7.3 72 2.4 W 30 37 16 20 1011.1 1011.1 0.0
16/01:00pm 12.4 5.8 7.9 74 2.2 W 32 46 17 25 1011.1 1011.1 0.0
16/12:30pm 12.2 5.8 7.1 71 2.5 W 30 41 16 22 1011.2 1011.2 0.0
16/12:00pm 12.6 6.7 7.5 71 2.5 WNW 28 43 15 23 1011.4 1011.4 0.0
16/11:30am 12.1 5.4 7.2 72 2.4 W 32 43 17 23 1011.4 1011.4 0.0
16/11:00am 11.9 5.9 7.0 72 2.3 WNW 28 44 15 24 1011.3 1011.3 0.0
16/10:30am 11.6 6.3 6.9 73 2.2 WNW 24 41 13 22 1011.2 1011.2 0.0
16/10:00am 11.2 7.3 7.3 77 1.9 WNW 17 28 9 15 1011.1 1011.1 0.0
16/09:30am 10.5 6.5 6.6 77 1.8 WNW 17 32 9 17 1011.1 1011.1 0.0
16/09:00am 10.0 6.0 6.5 79 1.6 WNW 17 26 9 14 1010.8 1010.8 3.8
16/08:30am 9.5 5.8 6.2 80 1.5 NW 15 28 8 15 1010.7 1010.7 3.8
16/08:00am 8.9 5.2 6.2 83 1.2 NW 15 26 8 14 1010.3 1010.3 3.8
16/07:30am 8.6 4.8 5.9 83 1.2 NW 15 28 8 15 1010.0 1010.0 3.8
16/07:00am 8.2 4.0 5.5 83 1.2 NW 17 28 9 15 1009.5 1009.5 3.8
16/06:30am 8.0 3.8 5.5 84 1.1 NW 17 28 9 15 1009.1 1009.1 3.8
16/06:00am 8.1 3.9 5.6 84 1.1 NW 17 26 9 14 1008.9 1008.9 3.8
16/05:30am 8.4 4.6 5.7 83 1.2 NW 15 24 8 13 1008.6 1008.6 3.8
16/05:00am 8.5 4.6 5.4 81 1.4 NW 15 30 8 16 1008.3 1008.3 3.8
16/04:30am 8.5 4.7 5.6 82 1.3 NW 15 32 8 17 1008.2 1008.2 3.8
16/04:00am 8.6 4.4 5.7 82 1.3 NW 17 26 9 14 1007.9 1007.9 3.8
16/03:30am 8.9 4.7 5.8 81 1.4 NW 17 33 9 18 1007.8 1007.8 3.8
16/03:00am 8.9 5.1 5.8 81 1.4 NW 15 26 8 14 1007.8 1007.8 3.8
16/02:30am 9.1 4.9 5.7 79 1.5 WNW 17 32 9 17 1007.7 1007.7 3.8
16/02:00am 9.1 4.9 5.8 80 1.5 NW 17 28 9 15 1007.9 1007.9 3.6
16/01:30am 9.3 5.2 6.0 80 1.5 NW 17 30 9 16 1007.8 1007.8 3.6
16/01:00am 9.2 5.0 5.6 78 1.6 WNW 17 32 9 17 1007.4 1007.4 3.6
16/12:30am 9.3 4.5 5.7 78 1.6 NW 20 33 11 18 1007.4 1007.4 3.6
16/12:00am 9.4 5.2 5.8 78 1.6 NW 17 30 9 16 1007.4 1007.4 3.6
 
Date/Time
EST
Temp
°C
App
Temp
°C
Dew
Point
°C
Rel
Hum
%
Delta-T
°C
Wind Press
QNH
hPa
Press
MSL
hPa
Rain since
9am
mm
Dir  Spd
km/h
Gust
km/h
Spd
kts
Gust
kts
15/11:30pm 9.4 5.2 5.8 78 1.6 NW 17 30 9 16 1007.2 1007.2 3.6
15/11:00pm 9.5 5.7 5.7 77 1.7 NW 15 26 8 14 1006.9 1006.9 3.6
15/10:30pm 9.6 5.4 5.6 76 1.8 WNW 17 30 9 16 1006.7 1006.7 3.6
15/10:00pm 9.8 5.2 5.8 76 1.8 WNW 19 35 10 19 1006.6 1006.6 3.6
15/09:30pm 10.0 5.4 5.8 75 1.9 NW 19 30 10 16 1006.6 1006.6 3.6
15/09:00pm 10.0 5.8 5.6 74 2.0 WNW 17 28 9 15 1006.5 1006.5 3.6
15/08:30pm 10.3 5.6 5.3 71 2.3 WNW 19 37 10 20 1006.2 1006.2 3.6
15/08:00pm 10.5 5.8 5.1 69 2.5 WNW 19 35 10 19 1006.0 1006.0 3.6
15/07:30pm 10.4 5.8 5.4 71 2.3 WNW 19 32 10 17 1005.8 1005.8 3.6
15/07:00pm 10.5 5.9 5.7 72 2.2 WNW 19 35 10 19 1005.5 1005.5 3.6
15/06:30pm 10.6 3.5 5.4 70 2.4 WNW 32 46 17 25 1005.1 1005.1 3.6
15/06:20pm 11.1 4.7 5.0 66 2.8 WNW 28 56 15 30 1005.0 1005.0 3.6
15/06:00pm 11.1 5.2 5.6 69 2.5 WNW 26 39 14 21 1004.9 1004.9 3.6
15/05:30pm 11.6 6.3 4.8 63 3.1 WNW 22 37 12 20 1004.4 1004.4 3.6
15/05:00pm 11.5 7.4 6.0 69 2.6 WNW 17 30 9 16 1004.2 1004.2 3.6
15/04:30pm 11.4 7.6 5.9 69 2.6 WNW 15 28 8 15 1004.0 1004.0 3.6
15/04:00pm 10.4 4.4 5.4 71 2.3 WNW 26 48 14 26 1003.8 1003.8 3.6
15/03:48pm 12.2 6.2 7.1 71 2.5 WNW 28 65 15 35 1004.0 1004.0 3.0
15/03:30pm 11.8 6.2 7.1 73 2.3 WNW 26 39 14 21 1003.5 1003.5 2.8
15/03:00pm 11.9 7.3 8.0 77 1.9 WNW 22 35 12 19 1003.6 1003.6 2.8
15/02:30pm 12.7 7.2 7.6 71 2.5 W 26 35 14 19 1003.5 1003.5 2.6
15/02:00pm 11.9 6.2 8.4 79 1.7 WNW 28 48 15 26 1003.5 1003.5 2.6
15/01:41pm 11.4 5.5 7.3 76 2.0 WNW 28 56 15 30 1003.7 1003.7 2.2
15/01:30pm 12.6 6.7 7.5 71 2.5 W 28 46 15 25 1003.3 1003.3 1.2
15/01:00pm 10.3 3.1 7.7 84 1.3 WNW 35 67 19 36 1003.6 1003.6 1.2
15/12:50pm 11.6 3.5 6.9 73 2.2 WNW 39 69 21 37 1003.6 1003.6 0.4
15/12:30pm 13.9 7.1 5.0 55 4.1 WNW 30 48 16 26 1003.2 1003.2 0.0
15/12:03pm 14.4 8.4 7.2 62 3.5 WNW 28 50 15 27 1003.5 1003.5 0.0
15/12:00pm 14.2 9.1 7.5 64 3.3 WNW 24 41 13 22 1003.6 1003.6 0.0
15/11:30am 13.3 6.6 7.3 67 2.9 WNW 32 61 17 33 1003.8 1003.8 0.0
15/11:00am 14.5 6.6 6.1 57 4.0 WNW 37 61 20 33 1003.7 1003.7 0.0
15/10:30am 14.3 5.6 5.9 57 4.0 WNW 41 61 22 33 1003.5 1003.5 0.0
15/10:00am 14.0 6.4 5.9 58 3.9 WNW 35 67 19 36 1003.2 1003.2 0.0
15/09:30am 13.8 7.0 6.7 62 3.4 WNW 32 54 17 29 1003.3 1003.3 0.0
15/09:27am 13.7 7.7 7.0 64 3.3 WNW 28 50 15 27 1003.3 1003.3 0.0
15/09:00am 12.1 5.5 8.6 79 1.7 WNW 33 46 18 25 1003.3 1003.3 0.4
15/08:36am 11.7 5.8 7.6 76 2.0 WNW 28 56 15 30 1003.1 1003.1 0.2
15/08:30am 11.7 6.8 7.0 73 2.2 NW 22 50 12 27 1003.2 1003.2 0.0
15/08:00am 13.6 7.6 5.3 57 3.9 NW 26 44 14 24 1002.3 1002.3 0.0
15/07:30am 13.4 8.4 4.6 55 4.0 NW 20 32 11 17 1002.3 1002.3 0.0
15/07:00am 13.5 7.6 3.8 52 4.4 NW 24 44 13 24 1002.3 1002.3 0.0
15/06:30am 13.9 6.1 2.8 47 4.9 NW 33 59 18 32 1001.8 1001.8 0.0
15/06:00am 14.0 7.1 2.6 46 5.1 NW 28 52 15 28 1001.3 1001.3 0.0
15/05:30am 14.4 6.8 2.6 45 5.2 NNW 32 54 17 29 1001.4 1001.4 0.0
15/05:10am 14.5 7.1 2.1 43 5.5 NNW 30 52 16 28 1001.4 1001.4 0.0
15/05:00am 14.5 7.2 2.4 44 5.4 NNW 30 48 16 26 1001.2 1001.2 0.0
15/04:30am 14.2 7.0 2.8 46 5.1 NNW 30 50 16 27 1001.4 1001.4 0.0
15/04:00am 14.7 6.5 2.6 44 5.4 NNW 35 57 19 31 1001.6 1001.6 0.0
15/03:30am 15.4 7.6 2.6 42 5.7 NNW 33 57 18 31 1002.1 1002.1 0.0
15/03:00am 15.5 6.2 3.0 43 5.7 NNW 41 63 22 34 1002.1 1002.1 0.0
15/02:30am 15.2 6.4 3.4 45 5.4 NNW 39 65 21 35 1002.4 1002.4 0.0
15/02:00am 15.4 6.6 3.5 45 5.5 NNW 39 57 21 31 1003.7 1003.7 0.0
15/01:30am 15.2 6.9 4.0 47 5.2 NNW 37 67 20 36 1004.2 1004.2 0.0
15/01:00am 15.4 6.7 3.9 46 5.3 NNW 39 65 21 35 1003.9 1003.9 0.0
15/12:30am 15.0 7.4 4.1 48 5.0 NNW 33 52 18 28 1004.7 1004.7 0.0
15/12:00am 14.7 6.9 4.7 51 4.7 NNW 35 54 19 29 1005.9 1005.9 0.0
 
Date/Time
EST
Temp
°C
App
Temp
°C
Dew
Point
°C
Rel
Hum
%
Delta-T
°C
Wind Press
QNH
hPa
Press
MSL
hPa
Rain since
9am
mm
Dir  Spd
km/h
Gust
km/h
Spd
kts
Gust
kts
14/11:30pm 14.5 7.3 4.8 52 4.5 NNW 32 56 17 30 1006.6 1006.6 0.0

Other Formats:

Comma delimited format used in spreadsheet applications
http://www.bom.gov.au/fwo/IDV60801/IDV60801.94886.axf

JavaScript Object Notation format (JSON) in row-major order
http://www.bom.gov.au/fwo/IDV60801/IDV60801.94886.json